Time;durP1;ratioP1;P1;durP2;ratioP2;P2;SDS_P1;SDS_P2;PMS_P1;PMS_P2;Temp;Humidity;BMP_temperature;BMP_pressure;BME280_temperature;BME280_humidity;BME280_pressure;Samples;Min_cycle;Max_cycle;Signal;HPM_P1;HPM_P2
2021/11/22 00:00:53;;;;;;;0.10;0.10;;;5.60;99.90;;;;;;5054463;28;20041;-80
2021/11/22 00:03:21;;;;;;;0.10;0.10;;;5.00;99.90;;;;;;5054247;28;20076;-80
2021/11/22 00:05:48;;;;;;;0.10;0.10;;;5.00;99.90;;;;;;5054124;28;20516;-80
2021/11/22 00:08:15;;;;;;;0.10;0.10;;;5.00;99.90;;;;;;5037169;28;20076;-83
2021/11/22 00:10:43;;;;;;;0.10;0.10;;;5.20;99.90;;;;;;5038140;28;20041;-83
2021/11/22 00:13:10;;;;;;;0.10;0.10;;;5.00;99.90;;;;;;5053972;28;20075;-80
2021/11/22 00:15:37;;;;;;;0.10;0.10;;;5.00;99.90;;;;;;5052664;28;20119;-80
2021/11/22 00:18:04;;;;;;;0.15;0.15;;;4.90;99.90;;;;;;5037589;28;20043;-83
2021/11/22 00:20:31;;;;;;;0.10;0.10;;;5.00;99.90;;;;;;5037255;28;20041;-83
2021/11/22 00:22:58;;;;;;;0.10;0.10;;;5.00;99.90;;;;;;5070123;28;20489;-80
2021/11/22 00:25:25;;;;;;;0.10;0.10;;;5.10;99.90;;;;;;5037249;28;20041;-83
2021/11/22 00:27:51;;;;;;;0.10;0.10;;;4.90;99.90;;;;;;5053874;28;20164;-80
2021/11/22 00:30:19;;;;;;;0.10;0.10;;;4.80;99.90;;;;;;5037258;28;20398;-80
2021/11/22 00:32:46;;;;;;;0.10;0.10;;;4.80;99.90;;;;;;5037614;28;20045;-83
2021/11/22 00:35:14;;;;;;;0.10;0.10;;;4.70;99.90;;;;;;5053289;28;20055;-83
2021/11/22 00:37:50;;;;;;;0.10;0.10;;;4.70;99.90;;;;;;5053340;28;20033;-83
2021/11/22 00:40:17;;;;;;;0.10;0.10;;;4.60;99.90;;;;;;5069754;28;20081;-82
2021/11/22 00:42:48;;;;;;;0.10;0.10;;;4.60;99.90;;;;;;5053465;28;20033;-79
2021/11/22 00:45:16;;;;;;;0.10;0.10;;;4.60;99.90;;;;;;5053839;28;20037;-80
2021/11/22 00:47:43;;;;;;;0.17;0.17;;;4.60;99.90;;;;;;5049631;28;20065;-80
2021/11/22 00:50:10;;;;;;;0.10;0.10;;;4.50;99.90;;;;;;5033149;28;20124;-83
2021/11/22 00:52:37;;;;;;;0.10;0.10;;;4.50;99.90;;;;;;5033043;28;20092;-80
2021/11/22 00:55:05;;;;;;;0.10;0.10;;;4.40;99.90;;;;;;5033495;28;20064;-83
2021/11/22 00:57:32;;;;;;;0.10;0.10;;;4.30;99.90;;;;;;5033260;28;20041;-80
2021/11/22 00:59:59;;;;;;;0.20;0.20;;;4.40;99.90;;;;;;5033351;28;20045;-80
2021/11/22 01:02:27;;;;;;;0.10;0.10;;;4.30;99.90;;;;;;5016883;28;20491;-82
2021/11/22 01:04:53;;;;;;;0.10;0.10;;;4.70;99.90;;;;;;5033557;28;20041;-80
2021/11/22 01:07:20;;;;;;;0.10;0.10;;;4.60;99.90;;;;;;5033313;28;20052;-82
2021/11/22 01:09:47;;;;;;;0.10;0.10;;;4.70;99.90;;;;;;5049587;28;20486;-80
2021/11/22 01:12:14;;;;;;;0.10;0.10;;;4.20;99.90;;;;;;5017090;28;20034;-80
2021/11/22 01:14:41;;;;;;;0.10;0.10;;;4.20;99.90;;;;;;5049200;28;20042;-83
2021/11/22 01:17:07;;;;;;;0.15;0.15;;;4.10;99.90;;;;;;5049867;28;20083;-80
2021/11/22 01:19:34;;;;;;;0.20;0.20;;;4.10;99.90;;;;;;5032917;28;20418;-83
2021/11/22 01:22:01;;;;;;;0.10;0.10;;;4.10;99.90;;;;;;5066036;28;20075;-83
2021/11/22 01:24:28;;;;;;;0.10;0.10;;;4.30;99.90;;;;;;5016834;28;20041;-80
2021/11/22 01:26:55;;;;;;;0.20;0.20;;;4.00;99.90;;;;;;5050625;28;20076;-83
2021/11/22 01:29:21;;;;;;;0.10;0.10;;;3.90;99.90;;;;;;5021023;28;20061;-80
2021/11/22 01:31:48;;;;;;;0.10;0.10;;;3.90;99.90;;;;;;5021089;28;20075;-83
2021/11/22 01:34:15;;;;;;;0.20;0.20;;;4.50;99.90;;;;;;5037231;28;20486;-80
2021/11/22 01:36:42;;;;;;;0.10;0.10;;;3.80;99.90;;;;;;5069779;28;20064;-83
2021/11/22 01:39:09;;;;;;;0.10;0.10;;;3.80;99.90;;;;;;5036890;28;20812;-83
2021/11/22 01:41:35;;;;;;;0.10;0.10;;;3.80;99.90;;;;;;5036451;28;20041;-83
2021/11/22 01:44:02;;;;;;;0.10;0.10;;;3.70;99.90;;;;;;5053758;28;20049;-80
2021/11/22 01:46:29;;;;;;;0.20;0.20;;;3.70;99.90;;;;;;5039268;28;20410;-82
2021/11/22 01:48:56;;;;;;;0.20;0.20;;;3.70;99.90;;;;;;5056683;28;20129;-83
2021/11/22 01:51:23;;;;;;;0.20;0.20;;;3.70;99.90;;;;;;5056753;28;20119;-82
2021/11/22 01:53:49;;;;;;;0.10;0.10;;;3.60;99.90;;;;;;5040341;28;20048;-80
2021/11/22 01:56:16;;;;;;;0.20;0.20;;;3.70;99.90;;;;;;5040369;28;20091;-83
2021/11/22 01:58:44;;;;;;;0.10;0.10;;;3.80;99.90;;;;;;5040306;28;20094;-82
2021/11/22 02:01:10;;;;;;;0.10;0.10;;;3.60;99.90;;;;;;5040730;28;20033;-80
2021/11/22 02:03:37;;;;;;;0.20;0.20;;;3.60;99.90;;;;;;5056425;28;20552;-80
2021/11/22 02:06:05;;;;;;;0.10;0.10;;;4.30;99.90;;;;;;5040148;28;20501;-80
2021/11/22 02:08:32;;;;;;;0.10;0.10;;;3.60;99.90;;;;;;5056010;28;20460;-80
2021/11/22 02:11:00;;;;;;;0.20;0.20;;;3.60;99.90;;;;;;5040177;28;20098;-80
2021/11/22 02:13:27;;;;;;;0.10;0.10;;;3.80;99.90;;;;;;5040422;28;20037;-83
2021/11/22 02:15:53;;;;;;;0.10;0.10;;;3.60;99.90;;;;;;5056330;28;20102;-79
2021/11/22 02:18:21;;;;;;;0.20;0.20;;;3.70;99.90;;;;;;5040040;28;20493;-83
2021/11/22 02:20:48;;;;;;;0.20;0.20;;;3.80;99.90;;;;;;5055876;28;20631;-80
2021/11/22 02:23:16;;;;;;;0.10;0.10;;;3.90;99.90;;;;;;5039597;28;20524;-83
2021/11/22 02:25:44;;;;;;;0.10;0.10;;;4.30;99.90;;;;;;5056326;28;20402;-82
2021/11/22 02:28:13;;;;;;;0.10;0.10;;;4.00;99.90;;;;;;5055889;28;20123;-80
2021/11/22 02:30:42;;;;;;;0.10;0.10;;;4.40;99.90;;;;;;5039305;28;20402;-80
2021/11/22 02:33:13;;;;;;;0.10;0.10;;;3.70;99.90;;;;;;5056098;28;20104;-82
2021/11/22 02:35:44;;;;;;;0.10;0.10;;;3.70;99.90;;;;;;5055566;28;20036;-83
2021/11/22 02:38:11;;;;;;;0.20;0.20;;;4.40;99.90;;;;;;5071796;28;20044;-80
2021/11/22 02:40:38;;;;;;;0.20;0.20;;;3.50;99.90;;;;;;5039351;28;20041;-80
2021/11/22 02:43:04;;;;;;;0.20;0.20;;;3.50;99.90;;;;;;5039663;28;20080;-83
2021/11/22 02:45:31;;;;;;;0.20;0.20;;;3.60;99.90;;;;;;5039567;28;20037;-82
2021/11/22 02:47:58;;;;;;;0.10;0.10;;;3.80;99.90;;;;;;5035539;28;20057;-80
2021/11/22 02:50:25;;;;;;;0.10;0.10;;;3.40;99.90;;;;;;5035895;28;20046;-83
2021/11/22 02:52:52;;;;;;;0.20;0.20;;;3.30;99.90;;;;;;5068371;28;20044;-83
2021/11/22 02:55:20;;;;;;;0.20;0.20;;;3.30;99.90;;;;;;5052582;28;20045;-83
2021/11/22 02:57:47;;;;;;;0.17;0.17;;;3.30;99.90;;;;;;5051993;28;20414;-80
2021/11/22 03:00:18;;;;;;;0.17;0.17;;;3.20;99.90;;;;;;5035574;28;20038;-82
2021/11/22 03:02:46;;;;;;;0.17;0.17;;;3.20;99.90;;;;;;5052178;28;20097;-82
2021/11/22 03:05:12;;;;;;;0.20;0.20;;;3.40;99.90;;;;;;5068060;28;20533;-80
2021/11/22 03:07:40;;;;;;;0.20;0.20;;;3.10;99.90;;;;;;5051464;28;20041;-80
2021/11/22 03:10:08;;;;;;;0.20;0.20;;;3.10;99.90;;;;;;5068021;28;20036;-80
2021/11/22 03:12:36;;;;;;;0.10;0.10;;;3.10;99.90;;;;;;5035792;28;20049;-82
2021/11/22 03:15:04;;;;;;;0.10;0.10;;;3.00;99.90;;;;;;5051644;28;20044;-80
2021/11/22 03:17:31;;;;;;;0.20;0.20;;;3.00;99.90;;;;;;5035280;28;20180;-83
2021/11/22 03:19:57;;;;;;;0.10;0.10;;;3.00;99.90;;;;;;5051344;28;20156;-82
2021/11/22 03:22:24;;;;;;;0.20;0.20;;;3.00;99.90;;;;;;5035373;28;20049;-83
2021/11/22 03:24:51;;;;;;;0.20;0.20;;;3.20;99.90;;;;;;5035078;28;20398;-83
2021/11/22 03:27:18;;;;;;;0.20;0.20;;;3.00;99.90;;;;;;5051463;28;20554;-82
2021/11/22 03:29:44;;;;;;;0.15;0.15;;;3.10;99.90;;;;;;5050968;28;20037;-80
2021/11/22 03:32:11;;;;;;;0.20;0.20;;;2.90;99.90;;;;;;5035285;28;20128;-80
2021/11/22 03:34:38;;;;;;;0.10;0.10;;;2.80;99.90;;;;;;5035176;28;20553;-83
2021/11/22 03:37:05;;;;;;;0.20;0.20;;;2.80;99.90;;;;;;5034578;28;20079;-80
2021/11/22 03:39:32;;;;;;;0.20;0.20;;;2.80;99.90;;;;;;5035403;28;20045;-83
2021/11/22 03:42:03;;;;;;;0.20;0.20;;;3.10;99.90;;;;;;5051469;28;20103;-80
2021/11/22 03:44:32;;;;;;;0.10;0.10;;;2.70;99.90;;;;;;5051708;28;20107;-82
2021/11/22 03:47:00;;;;;;;0.20;0.20;;;2.60;99.90;;;;;;5067243;28;20072;-80
2021/11/22 03:49:27;;;;;;;0.10;0.10;;;3.30;99.90;;;;;;5034778;28;20052;-83
2021/11/22 03:51:54;;;;;;;0.10;0.10;;;2.60;99.90;;;;;;5034350;28;20080;-82
2021/11/22 03:54:21;;;;;;;0.15;0.15;;;2.50;99.90;;;;;;5034815;28;20510;-83
2021/11/22 03:56:48;;;;;;;0.10;0.10;;;2.70;99.90;;;;;;5067021;28;20080;-83
2021/11/22 03:59:15;;;;;;;0.20;0.20;;;2.50;99.90;;;;;;5067441;28;20048;-83
2021/11/22 04:01:41;;;;;;;0.20;0.20;;;2.50;99.90;;;;;;5050725;28;20046;-82
2021/11/22 04:04:08;;;;;;;0.20;0.20;;;2.50;99.90;;;;;;5034241;28;20045;-83
2021/11/22 04:06:35;;;;;;;0.20;0.20;;;2.30;99.90;;;;;;5051198;28;20041;-82
2021/11/22 04:09:04;;;;;;;0.20;0.20;;;3.20;99.90;;;;;;5066948;28;20053;-83
2021/11/22 04:11:32;;;;;;;0.20;0.20;;;2.30;99.90;;;;;;5034670;28;20033;-80
2021/11/22 04:13:59;;;;;;;0.20;0.20;;;2.20;99.90;;;;;;5023449;28;20038;-83
2021/11/22 04:16:26;;;;;;;0.10;0.10;;;2.30;99.90;;;;;;5066987;28;20053;-82
2021/11/22 04:18:53;;;;;;;0.20;0.20;;;2.10;99.90;;;;;;5050227;28;20506;-82
2021/11/22 04:21:22;;;;;;;0.20;0.20;;;2.10;99.90;;;;;;5018083;28;20144;-82
2021/11/22 04:23:49;;;;;;;0.20;0.20;;;2.90;99.90;;;;;;5066326;28;20132;-82
2021/11/22 04:26:18;;;;;;;0.20;0.20;;;2.00;99.90;;;;;;5017949;28;20084;-80
2021/11/22 04:28:46;;;;;;;0.20;0.20;;;2.30;99.90;;;;;;5067282;28;20081;-80
2021/11/22 04:31:13;;;;;;;0.10;0.10;;;2.20;99.90;;;;;;5049961;28;20683;-82
2021/11/22 04:33:40;;;;;;;0.25;0.25;;;1.90;99.90;;;;;;5034397;28;20033;-80
2021/11/22 04:36:07;;;;;;;0.10;0.10;;;2.20;99.90;;;;;;5034506;28;20038;-82
2021/11/22 04:38:35;;;;;;;0.20;0.20;;;1.90;99.90;;;;;;5034290;28;20041;-82
2021/11/22 04:41:02;;;;;;;0.20;0.20;;;1.90;99.90;;;;;;5050452;28;20049;-85
2021/11/22 04:43:28;;;;;;;0.20;0.20;;;2.20;99.90;;;;;;5050028;28;20052;-80
2021/11/22 04:45:55;;;;;;;0.20;0.20;;;1.80;99.90;;;;;;5066235;28;20083;-80
2021/11/22 04:48:22;;;;;;;0.10;0.10;;;1.80;99.90;;;;;;5033544;28;20071;-80
2021/11/22 04:50:49;;;;;;;0.20;0.20;;;1.80;99.90;;;;;;5034119;28;20065;-83
2021/11/22 04:53:15;;;;;;;0.20;0.20;;;2.60;99.90;;;;;;5033548;28;20398;-80
2021/11/22 04:55:42;;;;;;;0.20;0.20;;;2.70;99.90;;;;;;5033968;28;20037;-82
2021/11/22 04:58:09;;;;;;;0.20;0.20;;;1.70;99.90;;;;;;5049695;28;20039;-80
2021/11/22 05:00:36;;;;;;;0.10;0.10;;;1.70;99.90;;;;;;5033857;28;20040;-80
2021/11/22 05:03:05;;;;;;;0.20;0.20;;;2.50;99.90;;;;;;5049492;28;20037;-80
2021/11/22 05:05:33;;;;;;;0.20;0.20;;;1.70;99.90;;;;;;5034349;28;20040;-82
2021/11/22 05:08:06;;;;;;;0.20;0.20;;;1.80;99.90;;;;;;5049700;28;20124;-82
2021/11/22 05:10:39;;;;;;;0.20;0.20;;;1.80;99.90;;;;;;5018875;28;20048;-80
2021/11/22 05:13:06;;;;;;;0.20;0.20;;;1.50;99.90;;;;;;5049677;28;20037;-83
2021/11/22 05:15:35;;;;;;;0.30;0.30;;;2.30;99.90;;;;;;5033828;28;20049;-80
2021/11/22 05:18:02;;;;;;;0.20;0.20;;;2.20;99.90;;;;;;5049391;28;20037;-80
2021/11/22 05:20:29;;;;;;;0.20;0.20;;;1.50;99.90;;;;;;5033375;28;20128;-80
2021/11/22 05:22:57;;;;;;;0.30;0.30;;;1.60;99.90;;;;;;5033126;28;20448;-80
2021/11/22 05:25:24;;;;;;;0.20;0.20;;;1.40;99.90;;;;;;5049893;28;20501;-79
2021/11/22 05:27:50;;;;;;;0.20;0.20;;;1.50;99.90;;;;;;5033634;28;20053;-82
2021/11/22 05:30:18;;;;;;;0.30;0.30;;;1.40;99.90;;;;;;5033155;28;20041;-83
2021/11/22 05:32:47;;;;;;;0.22;0.22;;;1.40;99.90;;;;;;5033626;28;20038;-80
2021/11/22 05:35:14;;;;;;;0.22;0.22;;;1.40;99.90;;;;;;5017922;28;20033;-82
2021/11/22 05:37:41;;;;;;;0.20;0.20;;;1.30;99.90;;;;;;5017335;28;20094;-83
2021/11/22 05:40:08;;;;;;;0.20;0.20;;;1.30;99.90;;;;;;5049664;28;20494;-79
2021/11/22 05:42:35;;;;;;;0.30;0.30;;;1.30;99.90;;;;;;5050022;28;20534;-80
2021/11/22 05:45:04;;;;;;;0.30;0.30;;;1.30;99.90;;;;;;5049001;28;20052;-80
2021/11/22 05:47:30;;;;;;;0.20;0.20;;;1.30;99.90;;;;;;5032969;28;20060;-82
2021/11/22 05:50:04;;;;;;;0.20;0.20;;;1.20;99.90;;;;;;5049667;28;20049;-83
2021/11/22 05:52:32;;;;;;;0.25;0.25;;;1.20;99.90;;;;;;5050604;28;20146;-81
2021/11/22 05:54:59;;;;;;;0.30;0.30;;;1.20;99.90;;;;;;5049524;28;20406;-79
2021/11/22 05:57:26;;;;;;;0.20;0.20;;;1.20;99.90;;;;;;5050023;28;20048;-79
2021/11/22 05:59:53;;;;;;;0.20;0.20;;;2.00;99.90;;;;;;5049382;28;20041;-79
2021/11/22 06:02:20;;;;;;;0.30;0.30;;;1.10;99.90;;;;;;5048887;28;20052;-80
2021/11/22 06:04:47;;;;;;;0.22;0.22;;;1.50;99.90;;;;;;5049904;28;20095;-83
2021/11/22 06:07:14;;;;;;;0.30;0.30;;;1.70;99.90;;;;;;5032947;28;20111;-83
2021/11/22 06:09:40;;;;;;;0.22;0.22;;;1.20;99.90;;;;;;5065179;28;20517;-82
2021/11/22 06:12:07;;;;;;;0.30;0.30;;;1.90;99.90;;;;;;5065454;28;20128;-80
2021/11/22 06:14:34;;;;;;;0.28;0.28;;;1.10;99.90;;;;;;5051639;28;20052;-80
2021/11/22 06:17:01;;;;;;;0.20;0.20;;;1.20;99.90;;;;;;5036606;28;20037;-79
2021/11/22 06:19:27;;;;;;;0.20;0.20;;;1.00;99.90;;;;;;5036354;28;20517;-83
2021/11/22 06:21:54;;;;;;;0.20;0.20;;;1.00;99.90;;;;;;5052676;28;20045;-79
2021/11/22 06:24:21;;;;;;;0.30;0.30;;;1.00;99.90;;;;;;5019884;28;20051;-82
2021/11/22 06:26:50;;;;;;;0.20;0.20;;;0.90;99.90;;;;;;5053483;28;20048;-80
2021/11/22 06:29:18;;;;;;;0.20;0.20;;;1.00;99.90;;;;;;5054426;28;20037;-78
2021/11/22 06:31:45;;;;;;;0.30;0.30;;;1.90;99.90;;;;;;5045478;28;20641;-79
2021/11/22 06:34:12;;;;;;;0.25;0.25;;;1.00;99.90;;;;;;5035332;28;20037;-82
2021/11/22 06:36:39;;;;;;;0.30;0.30;;;0.90;99.90;;;;;;5036860;28;20076;-82
2021/11/22 06:39:06;;;;;;;0.20;0.20;;;0.90;99.90;;;;;;5043180;28;20537;-79
2021/11/22 06:41:33;;;;;;;0.30;0.30;;;1.50;99.90;;;;;;5033408;28;20045;-83
2021/11/22 06:44:00;;;;;;;0.30;0.30;;;0.90;99.90;;;;;;5019430;28;20053;-79
2021/11/22 06:46:27;;;;;;;0.30;0.30;;;0.90;99.90;;;;;;5003726;28;20490;-82
2021/11/22 06:48:53;;;;;;;0.30;0.30;;;1.70;99.90;;;;;;5020026;28;20046;-83
2021/11/22 06:51:20;;;;;;;0.30;0.30;;;0.80;99.90;;;;;;5037240;28;20064;-80
2021/11/22 06:53:47;;;;;;;0.30;0.30;;;1.70;99.90;;;;;;5050195;28;20498;-82
2021/11/22 06:56:14;;;;;;;0.30;0.30;;;0.90;99.90;;;;;;5043223;28;20075;-80
2021/11/22 06:58:41;;;;;;;0.20;0.20;;;0.90;99.90;;;;;;5038807;28;20041;-82
2021/11/22 07:01:07;;;;;;;0.22;0.22;;;0.80;99.90;;;;;;5003505;28;20049;-80
2021/11/22 07:03:34;;;;;;;0.20;0.20;;;0.80;99.90;;;;;;5028033;28;20040;-83
2021/11/22 07:06:01;;;;;;;0.30;0.30;;;0.80;99.90;;;;;;5055160;28;20036;-79
2021/11/22 07:08:28;;;;;;;0.30;0.30;;;1.10;99.90;;;;;;5037738;28;20110;-82
2021/11/22 07:10:54;;;;;;;0.30;0.30;;;0.80;99.90;;;;;;5071420;28;20045;-79
2021/11/22 07:13:23;;;;;;;0.30;0.30;;;0.70;99.90;;;;;;5039486;28;20036;-80
2021/11/22 07:15:50;;;;;;;0.30;0.30;;;0.80;99.90;;;;;;5057155;28;20481;-82
2021/11/22 07:18:17;;;;;;;0.30;0.30;;;0.80;99.90;;;;;;5027518;28;20037;-83
2021/11/22 07:20:46;;;;;;;0.30;0.30;;;0.80;99.90;;;;;;5019766;28;20478;-83
2021/11/22 07:23:21;;;;;;;0.30;0.30;;;0.80;99.90;;;;;;5019584;28;20205;-81
2021/11/22 07:25:52;;;;;;;0.20;0.20;;;0.70;99.90;;;;;;5052716;28;20041;-81
2021/11/22 07:28:20;;;;;;;0.20;0.20;;;0.70;99.90;;;;;;5035563;28;20040;-82
2021/11/22 07:30:48;;;;;;;0.20;0.20;;;0.70;99.90;;;;;;5003067;28;20053;-84
2021/11/22 07:33:16;;;;;;;0.30;0.30;;;0.70;99.90;;;;;;5018423;28;20091;-81
2021/11/22 07:35:43;;;;;;;0.40;0.40;;;0.90;99.90;;;;;;5035036;28;20043;-85
2021/11/22 07:38:10;;;;;;;0.20;0.20;;;0.70;99.90;;;;;;5002988;28;20038;-84
2021/11/22 07:40:37;;;;;;;0.20;0.20;;;0.80;99.90;;;;;;5034665;28;20068;-81
2021/11/22 07:43:04;;;;;;;0.30;0.30;;;0.80;99.90;;;;;;5019220;28;20405;-85
2021/11/22 07:45:31;;;;;;;0.30;0.30;;;1.40;99.90;;;;;;5007906;28;20029;-81
2021/11/22 07:47:58;;;;;;;0.20;0.20;;;0.80;99.90;;;;;;5054092;28;20045;-85
2021/11/22 07:50:28;;;;;;;0.30;0.30;;;1.40;99.90;;;;;;5054085;28;20048;-82
2021/11/22 07:52:56;;;;;;;0.30;0.30;;;0.80;99.90;;;;;;5071098;28;20100;-85
2021/11/22 07:55:23;;;;;;;0.30;0.30;;;0.90;99.90;;;;;;5054305;28;20477;-81
2021/11/22 07:57:51;;;;;;;0.20;0.20;;;0.90;99.90;;;;;;5054235;28;20041;-81
2021/11/22 08:00:19;;;;;;;0.20;0.20;;;0.90;99.90;;;;;;5070323;28;20044;-82
2021/11/22 08:02:46;;;;;;;0.30;0.30;;;0.90;99.90;;;;;;5070515;28;20045;-81
2021/11/22 08:05:13;;;;;;;0.22;0.22;;;1.00;99.90;;;;;;5034329;28;20063;-85
2021/11/22 08:07:42;;;;;;;0.30;0.30;;;1.70;99.90;;;;;;5051119;28;20052;-85
2021/11/22 08:10:25;;;;;;;0.20;0.20;;;1.00;99.90;;;;;;5050637;28;20410;-86
2021/11/22 08:13:04;;;;;;;0.20;0.20;;;1.20;99.90;;;;;;5051023;28;20199;-81
2021/11/22 08:15:33;;;;;;;0.30;0.30;;;1.10;99.90;;;;;;5050558;28;20041;-85
2021/11/22 08:18:01;;;;;;;0.20;0.20;;;1.10;99.90;;;;;;5050992;28;20394;-84
2021/11/22 08:20:29;;;;;;;0.22;0.22;;;1.60;99.90;;;;;;5034195;28;20049;-82
2021/11/22 08:22:56;;;;;;;0.30;0.30;;;1.20;99.90;;;;;;5050275;28;20409;-81
2021/11/22 08:25:26;;;;;;;0.30;0.30;;;1.20;99.90;;;;;;5049787;28;20049;-81
2021/11/22 08:27:55;;;;;;;0.30;0.30;;;1.20;99.90;;;;;;5050234;28;20502;-85
2021/11/22 08:30:25;;;;;;;0.30;0.30;;;1.70;99.90;;;;;;5050124;28;20038;-84
2021/11/22 08:32:55;;;;;;;0.20;0.20;;;1.30;99.90;;;;;;5050173;28;20107;-81
2021/11/22 08:35:23;;;;;;;0.20;0.20;;;1.40;99.90;;;;;;5050565;28;20041;-81
2021/11/22 08:37:50;;;;;;;0.20;0.20;;;1.50;99.90;;;;;;5049424;28;20049;-84
2021/11/22 08:40:21;;;;;;;0.20;0.20;;;1.60;99.90;;;;;;5050190;28;20041;-81
2021/11/22 08:42:49;;;;;;;0.28;0.28;;;1.50;99.90;;;;;;5050008;28;20131;-84
2021/11/22 08:45:16;;;;;;;0.28;0.28;;;1.60;99.90;;;;;;5050389;28;20087;-84
2021/11/22 08:47:43;;;;;;;0.30;0.30;;;1.60;99.90;;;;;;5029836;28;20085;-85
2021/11/22 08:50:13;;;;;;;0.28;0.28;;;1.70;99.90;;;;;;5047029;28;20042;-84
2021/11/22 08:52:43;;;;;;;0.20;0.20;;;2.00;99.90;;;;;;5046290;28;20508;-85
2021/11/22 08:55:12;;;;;;;0.22;0.22;;;1.80;99.90;;;;;;5047221;28;20044;-85
2021/11/22 08:57:39;;;;;;;0.20;0.20;;;2.50;99.90;;;;;;5046254;28;20038;-82
2021/11/22 09:00:13;;;;;;;0.20;0.20;;;1.90;99.90;;;;;;5029972;28;20132;-82
2021/11/22 09:02:39;;;;;;;0.20;0.20;;;2.00;99.90;;;;;;5046139;28;20042;-84
2021/11/22 09:05:07;;;;;;;0.20;0.20;;;2.10;99.90;;;;;;5046881;28;20095;-82
2021/11/22 09:07:34;;;;;;;0.20;0.20;;;2.20;99.90;;;;;;5062566;28;20435;-85
2021/11/22 09:10:00;;;;;;;0.20;0.20;;;2.30;99.90;;;;;;5046160;28;20095;-84
2021/11/22 09:12:27;;;;;;;0.20;0.20;;;2.80;99.90;;;;;;5046094;28;20049;-82
2021/11/22 09:14:54;;;;;;;0.20;0.20;;;3.10;99.90;;;;;;5046385;28;20034;-82
2021/11/22 09:17:21;;;;;;;0.20;0.20;;;2.50;99.90;;;;;;5046655;28;20049;-85
2021/11/22 09:19:48;;;;;;;0.20;0.20;;;2.60;99.90;;;;;;5029724;28;20621;-81
2021/11/22 09:22:14;;;;;;;0.20;0.20;;;3.50;99.90;;;;;;5029974;28;20041;-82
2021/11/22 09:24:42;;;;;;;0.22;0.22;;;2.70;99.90;;;;;;5046041;28;20037;-84
2021/11/22 09:27:09;;;;;;;0.10;0.10;;;3.50;99.90;;;;;;5045923;28;20046;-82
2021/11/22 09:29:37;;;;;;;0.73;0.73;;;3.70;99.90;;;;;;5029147;28;20052;-85
2021/11/22 09:32:06;;;;;;;0.20;0.20;;;2.90;99.90;;;;;;5046078;28;20034;-85
2021/11/22 09:34:32;;;;;;;0.20;0.20;;;2.90;99.90;;;;;;5029466;28;20514;-84
2021/11/22 09:36:59;;;;;;;0.20;0.20;;;2.90;99.90;;;;;;5045966;28;20125;-82
2021/11/22 09:39:27;;;;;;;0.20;0.20;;;3.00;99.90;;;;;;5046195;28;20069;-85
2021/11/22 09:41:54;;;;;;;0.10;0.10;;;3.10;99.90;;;;;;5046059;28;20097;-84
2021/11/22 09:44:22;;;;;;;0.20;0.20;;;3.10;99.90;;;;;;5046433;28;20085;-85
2021/11/22 09:46:50;;;;;;;0.20;0.20;;;3.20;99.90;;;;;;5065304;28;20498;-85
2021/11/22 09:49:18;;;;;;;0.20;0.20;;;3.30;99.90;;;;;;5036141;28;20422;-82
2021/11/22 09:51:45;;;;;;;0.20;0.20;;;3.30;99.90;;;;;;5052952;28;20804;-82
2021/11/22 09:54:12;;;;;;;0.10;0.10;;;3.40;99.90;;;;;;5053755;28;20044;-82
2021/11/22 09:56:39;;;;;;;1.13;0.40;;;3.50;99.90;;;;;;5056332;28;20033;-85
2021/11/22 09:59:06;;;;;;;0.20;0.20;;;3.60;99.90;;;;;;5024185;28;20409;-85
2021/11/22 10:01:37;;;;;;;0.20;0.20;;;4.00;99.90;;;;;;5073426;28;20040;-85
2021/11/22 10:04:07;;;;;;;0.10;0.10;;;3.70;99.90;;;;;;5072750;28;20063;-82
2021/11/22 10:06:50;;;;;;;0.20;0.20;;;3.80;99.90;;;;;;5060875;28;20079;-82
2021/11/22 10:09:35;;;;;;;0.20;0.20;;;4.00;99.90;;;;;;5036811;28;20042;-82
2021/11/22 10:12:24;;;;;;;0.20;0.20;;;4.00;99.90;;;;;;5052693;28;20127;-83
2021/11/22 10:14:55;;;;;;;0.20;0.20;;;4.10;99.90;;;;;;5061895;28;20049;-83
2021/11/22 10:17:35;;;;;;;0.20;0.20;;;4.20;99.90;;;;;;5040775;28;20052;-86
2021/11/22 10:20:08;;;;;;;0.17;0.17;;;4.20;99.90;;;;;;5037024;28;20049;-83
2021/11/22 10:23:02;;;;;;;0.20;0.20;;;4.30;99.90;;;;;;5052745;28;20517;-87
2021/11/22 10:25:38;;;;;;;0.10;0.10;;;4.40;99.90;;;;;;5036507;28;20037;-84
2021/11/22 10:28:12;;;;;;;0.20;0.20;;;4.50;99.90;;;;;;5052250;28;20041;-84
2021/11/22 10:30:51;;;;;;;0.20;0.20;;;5.20;99.90;;;;;;5035917;28;20050;-81
2021/11/22 10:33:24;;;;;;;0.20;0.20;;;4.80;99.90;;;;;;5038582;28;20490;-83
2021/11/22 10:35:53;;;;;;;0.20;0.20;;;4.80;99.90;;;;;;5035882;28;20039;-83
2021/11/22 10:38:26;;;;;;;0.10;0.10;;;4.80;99.90;;;;;;5036438;28;20083;-83
2021/11/22 10:40:56;;;;;;;0.10;0.10;;;4.80;99.90;;;;;;5035675;28;20065;-83
2021/11/22 10:43:34;;;;;;;0.10;0.10;;;4.80;99.90;;;;;;5035838;28;20073;-82
2021/11/22 10:46:05;;;;;;;0.10;0.10;;;4.80;99.90;;;;;;5035743;28;20045;-82
2021/11/22 10:48:33;;;;;;;0.20;0.20;;;4.80;99.90;;;;;;5035594;28;20057;-82
2021/11/22 10:51:07;;;;;;;0.20;0.20;;;5.50;99.90;;;;;;5019241;28;20413;-83
2021/11/22 10:53:45;;;;;;;0.10;0.10;;;4.90;99.90;;;;;;5051976;28;20046;-81
2021/11/22 10:56:19;;;;;;;0.10;0.10;;;5.70;99.90;;;;;;5036092;28;20053;-83
2021/11/22 10:59:23;;;;;;;0.10;0.10;;;5.10;99.90;;;;;;5034965;28;20049;-81
2021/11/22 11:01:57;;;;;;;0.17;0.17;;;5.20;99.90;;;;;;5032386;28;20572;-82
2021/11/22 11:04:24;;;;;;;0.10;0.10;;;5.30;99.90;;;;;;5019522;28;20485;-82
2021/11/22 11:07:18;;;;;;;0.10;0.10;;;5.30;99.90;;;;;;5035172;28;20041;-82
2021/11/22 11:09:52;;;;;;;0.10;0.10;;;5.40;99.90;;;;;;5032188;28;20052;-81
2021/11/22 11:12:23;;;;;;;0.10;0.10;;;5.40;99.90;;;;;;5059105;28;20079;-81
2021/11/22 11:14:53;;;;;;;0.10;0.10;;;5.50;99.90;;;;;;5071200;28;20132;-82
2021/11/22 11:17:22;;;;;;;0.10;0.10;;;5.60;99.90;;;;;;5054780;28;20043;-83
2021/11/22 11:19:53;;;;;;;0.15;0.15;;;5.80;99.90;;;;;;5054601;28;20083;-82
2021/11/22 11:22:21;;;;;;;0.10;0.10;;;5.80;99.90;;;;;;5071267;28;20044;-81
2021/11/22 11:24:49;;;;;;;0.10;0.10;;;5.90;99.90;;;;;;5038299;28;20060;-81
2021/11/22 11:27:17;;;;;;;0.10;0.10;;;6.00;99.90;;;;;;5054701;28;20045;-82
2021/11/22 11:29:45;;;;;;;0.10;0.10;;;5.90;99.90;;;;;;5054876;28;20033;-83
2021/11/22 11:32:12;;;;;;;0.10;0.10;;;5.90;99.90;;;;;;5038563;28;20044;-82
2021/11/22 11:34:49;;;;;;;0.10;0.10;;;6.00;99.90;;;;;;5046760;28;20049;-83
2021/11/22 11:37:38;;;;;;;0.20;0.20;;;6.00;99.90;;;;;;5019762;28;20121;-80
2021/11/22 11:40:13;;;;;;;0.10;0.10;;;6.00;99.90;;;;;;5054796;28;20037;-81
2021/11/22 11:42:49;;;;;;;0.10;0.10;;;6.10;99.90;;;;;;5046855;28;20064;-81
2021/11/22 11:45:26;;;;;;;0.10;0.10;;;6.10;99.90;;;;;;5038622;28;20095;-80
2021/11/22 11:48:32;;;;;;;0.10;0.10;;;6.20;99.90;;;;;;5049185;28;20060;-80
2021/11/22 11:51:12;;;;;;;0.10;0.10;;;6.20;99.90;;;;;;4999296;28;20056;-81
2021/11/22 11:54:09;;;;;;;0.10;0.10;;;6.20;99.90;;;;;;5064815;28;20045;-81
2021/11/22 11:57:04;;;;;;;0.10;0.10;;;6.30;99.90;;;;;;5034756;28;20052;-82
2021/11/22 11:59:41;;;;;;;0.10;0.10;;;6.30;99.90;;;;;;5056554;28;20045;-81
2021/11/22 12:02:26;;;;;;;0.10;0.10;;;6.30;99.90;;;;;;5056583;28;20052;-81
2021/11/22 12:04:55;;;;;;;0.10;0.10;;;6.30;99.90;;;;;;5050587;28;20441;-80
2021/11/22 12:07:28;;;;;;;0.10;0.10;;;6.40;99.90;;;;;;5050925;28;20045;-81
2021/11/22 12:10:09;;;;;;;0.10;0.10;;;6.40;99.90;;;;;;5050129;28;20045;-81
2021/11/22 12:12:42;;;;;;;0.10;0.10;;;6.50;99.90;;;;;;5050512;28;20103;-83
2021/11/22 12:15:12;;;;;;;0.10;0.10;;;6.50;99.90;;;;;;5050586;28;20077;-82
2021/11/22 12:17:39;;;;;;;0.10;0.10;;;6.70;99.90;;;;;;5051185;28;20493;-81
2021/11/22 12:20:10;;;;;;;0.10;0.10;;;6.80;99.90;;;;;;5062510;28;20041;-82
2021/11/22 12:23:02;;;;;;;0.10;0.10;;;6.80;99.90;;;;;;5054501;28;20041;-81
2021/11/22 12:25:38;;;;;;;0.10;0.10;;;7.00;99.90;;;;;;5050456;28;20041;-81
2021/11/22 12:28:10;;;;;;;0.10;0.10;;;7.10;99.90;;;;;;5068611;28;20516;-81
2021/11/22 12:30:41;;;;;;;0.10;0.10;;;7.20;99.90;;;;;;5053551;28;20037;-82
2021/11/22 12:33:20;;;;;;;0.10;0.10;;;7.40;99.90;;;;;;5053356;28;20048;-81
2021/11/22 12:35:56;;;;;;;0.10;0.10;;;7.50;99.90;;;;;;5053664;28;20044;-82
2021/11/22 12:38:33;;;;;;;0.10;0.10;;;7.60;99.90;;;;;;5053605;28;20524;-81
2021/11/22 12:41:12;;;;;;;0.10;0.10;;;7.70;99.90;;;;;;5069782;28;20416;-80
2021/11/22 12:43:48;;;;;;;0.10;0.10;;;7.80;99.90;;;;;;5051136;28;20405;-81
2021/11/22 12:46:19;;;;;;;0.10;0.10;;;7.90;99.90;;;;;;5033500;28;20045;-79
2021/11/22 12:48:47;;;;;;;0.10;0.10;;;7.80;99.90;;;;;;5046099;28;20050;-79
2021/11/22 12:51:16;;;;;;;0.10;0.10;;;7.80;99.90;;;;;;5049344;28;20506;-81
2021/11/22 12:54:01;;;;;;;0.03;0.03;;;7.80;99.90;;;;;;5021934;28;20041;-82
2021/11/22 12:56:36;;;;;;;0.10;0.10;;;7.80;99.90;;;;;;5046681;28;20827;-81
2021/11/22 12:59:44;;;;;;;0.10;0.10;;;7.90;99.90;;;;;;5065856;28;20490;-82
2021/11/22 13:02:39;;;;;;;0.10;0.10;;;7.80;99.90;;;;;;5064067;28;20138;-81
2021/11/22 13:05:06;;;;;;;0.10;0.10;;;7.80;99.90;;;;;;5056150;28;20077;-82
2021/11/22 13:07:36;;;;;;;0.10;0.10;;;7.80;99.90;;;;;;5037097;28;20072;-82
2021/11/22 13:10:32;;;;;;;0.10;0.10;;;7.80;99.90;;;;;;5046016;28;20076;-80